Time,TemperatureF,DewpointF,PressureIn,WindDirection,WindDirectionDegrees,WindSpeedMPH,WindSpeedGustMPH,Humidity,HourlyPrecipIn,Conditions,Clouds,dailyrainin,SoftwareType,DateUTC
2013-06-25 00:01:00,58.0,56.0,-100.00,SSW,205,7.0,11.0,93,0.00,,,0.02,,2013-06-25 06:01:00,
2013-06-25 00:21:00,57.0,56.0,-100.00,South,175,5.0,7.0,95,0.00,,,0.02,,2013-06-25 06:21:00,
2013-06-25 00:33:00,57.0,56.0,-100.00,SSE,158,4.0,6.0,95,0.00,,,0.02,,2013-06-25 06:33:00,
2013-06-25 00:43:00,57.0,56.0,-100.00,SE,133,4.0,5.0,96,0.00,,,0.02,,2013-06-25 06:43:00,
2013-06-25 00:52:00,57.0,56.0,-100.00,SE,133,4.0,5.0,96,0.00,,,0.02,,2013-06-25 06:52:00,
2013-06-25 01:02:00,57.0,56.0,-100.00,South,169,4.0,5.0,96,0.00,,,0.02,,2013-06-25 07:02:00,
2013-06-25 01:22:00,57.0,56.0,-100.00,SSW,198,4.0,5.0,95,0.00,,,0.02,,2013-06-25 07:22:00,
2013-06-25 01:33:00,57.0,56.0,-100.00,SSE,155,4.0,6.0,94,0.00,,,0.02,,2013-06-25 07:33:00,
2013-06-25 01:43:00,57.0,56.0,-100.00,South,172,3.0,4.0,94,0.00,,,0.02,,2013-06-25 07:43:00,
2013-06-25 02:01:00,57.0,55.0,-100.00,South,176,4.0,4.0,94,0.00,,,0.02,,2013-06-25 08:01:00,
2013-06-25 02:21:00,57.0,55.0,-100.00,SSE,162,2.0,3.0,95,0.00,,,0.02,,2013-06-25 08:21:00,
2013-06-25 02:33:00,57.0,55.0,-100.00,SSE,162,2.0,3.0,95,0.00,,,0.02,,2013-06-25 08:33:00,
2013-06-25 03:02:00,56.0,54.0,-100.00,SE,143,4.0,6.0,95,0.00,,,0.02,,2013-06-25 09:02:00,
2013-06-25 03:12:00,55.0,53.0,-100.00,SE,144,5.0,6.0,95,0.00,,,0.02,,2013-06-25 09:12:00,
2013-06-25 03:21:00,55.0,53.0,-100.00,SE,144,5.0,6.0,95,0.00,,,0.02,,2013-06-25 09:21:00,
2013-06-25 04:01:00,56.0,54.0,-100.00,South,176,4.0,5.0,95,0.00,,,0.02,,2013-06-25 10:01:00,
2013-06-25 04:21:00,56.0,54.0,-100.00,SE,143,5.0,6.0,95,0.00,,,0.02,,2013-06-25 10:21:00,
2013-06-25 04:33:00,56.0,54.0,-100.00,SSE,155,6.0,7.0,96,0.00,,,0.02,,2013-06-25 10:33:00,
2013-06-25 04:42:00,56.0,54.0,-100.00,SSE,151,6.0,8.0,93,0.00,,,0.02,,2013-06-25 10:42:00,
2013-06-25 04:52:00,56.0,54.0,-100.00,SSE,151,6.0,8.0,93,0.00,,,0.02,,2013-06-25 10:52:00,
2013-06-25 05:01:00,56.0,54.0,-100.00,SSE,148,7.0,8.0,92,0.00,,,0.02,,2013-06-25 11:01:00,
2013-06-25 05:11:00,55.0,53.0,-100.00,SE,144,7.0,9.0,93,0.00,,,0.02,,2013-06-25 11:11:00,
2013-06-25 05:22:00,55.0,53.0,-100.00,SE,144,7.0,9.0,93,0.00,,,0.02,,2013-06-25 11:22:00,
2013-06-25 05:34:00,55.0,53.0,-100.00,SE,144,7.0,9.0,93,0.00,,,0.02,,2013-06-25 11:34:00,
2013-06-25 05:43:00,54.0,53.0,-100.00,SE,143,8.0,10.0,93,0.00,,,0.02,,2013-06-25 11:43:00,
2013-06-25 06:01:00,55.0,52.0,-100.00,SE,131,8.0,12.0,92,0.00,,,0.02,,2013-06-25 12:01:00,
2013-06-25 06:11:00,55.0,52.0,-100.00,SE,131,8.0,12.0,92,0.00,,,0.02,,2013-06-25 12:11:00,
2013-06-25 06:22:00,55.0,53.0,-100.00,SE,140,11.0,13.0,92,0.00,,,0.02,,2013-06-25 12:22:00,
2013-06-25 06:43:00,54.0,52.0,-100.00,SSE,151,9.0,11.0,92,0.00,,,0.02,,2013-06-25 12:43:00,
2013-06-25 07:01:00,54.0,53.0,-100.00,SSE,151,8.0,11.0,93,0.00,,,0.02,,2013-06-25 13:01:00,
2013-06-25 07:22:00,55.0,53.0,-100.00,SE,137,8.0,9.0,91,0.00,,,0.02,,2013-06-25 13:22:00,
2013-06-25 07:30:00,58.0,54.0,-100.00,SE,144,7.0,9.0,87,0.00,,,0.02,,2013-06-25 13:30:00,
2013-06-25 07:34:00,56.0,53.0,-100.00,SSE,150,8.0,10.0,90,0.00,,,0.02,,2013-06-25 13:34:00,
2013-06-25 07:53:00,57.0,54.0,-100.00,SE,145,7.0,9.0,88,0.00,,,0.02,,2013-06-25 13:53:00,
2013-06-25 08:11:00,58.0,54.0,-100.00,SE,144,7.0,9.0,87,0.00,,,0.02,,2013-06-25 14:11:00,
2013-06-25 08:22:00,58.0,54.0,-100.00,SE,144,7.0,9.0,87,0.00,,,0.02,,2013-06-25 14:22:00,
2013-06-25 09:01:00,62.0,54.0,-100.00,SE,140,11.0,15.0,77,0.00,,,0.02,,2013-06-25 15:01:00,
2013-06-25 09:22:00,63.0,54.0,-100.00,SE,140,11.0,14.0,74,0.00,,,0.02,,2013-06-25 15:22:00,
2013-06-25 10:03:00,66.0,51.0,-100.00,SSE,152,4.0,6.0,58,0.00,,,0.02,,2013-06-25 16:03:00,
2013-06-25 10:23:00,65.0,51.0,-100.00,SSW,206,5.0,6.0,61,0.00,,,0.02,,2013-06-25 16:23:00,
2013-06-25 10:34:00,68.0,51.0,-100.00,WSW,239,11.0,15.0,54,0.00,,,0.02,,2013-06-25 16:34:00,
2013-06-25 10:44:00,68.0,50.0,-100.00,SW,219,10.0,12.0,53,0.00,,,0.02,,2013-06-25 16:44:00,
2013-06-25 10:52:00,68.0,50.0,-100.00,SW,219,10.0,12.0,53,0.00,,,0.02,,2013-06-25 16:52:00,
2013-06-25 11:01:00,68.0,50.0,-100.00,SW,219,10.0,12.0,53,0.00,,,0.02,,2013-06-25 17:01:00,
2013-06-25 11:11:00,68.0,50.0,-100.00,SW,219,10.0,12.0,53,0.00,,,0.02,,2013-06-25 17:11:00,
2013-06-25 11:22:00,70.0,50.0,-100.00,SW,217,6.0,8.0,50,0.00,,,0.02,,2013-06-25 17:22:00,
2013-06-25 11:44:00,69.0,52.0,-100.00,West,270,9.0,11.0,55,0.00,,,0.02,,2013-06-25 17:44:00,
2013-06-25 11:53:00,69.0,52.0,-100.00,West,270,9.0,11.0,55,0.00,,,0.02,,2013-06-25 17:53:00,
2013-06-25 12:02:00,70.0,52.0,-100.00,West,274,6.0,8.0,52,0.00,,,0.02,,2013-06-25 18:02:00,
2013-06-25 12:22:00,70.0,51.0,-100.00,WSW,258,5.0,7.0,50,0.00,,,0.02,,2013-06-25 18:22:00,
2013-06-25 12:34:00,71.0,50.0,-100.00,WNW,302,4.0,7.0,49,0.00,,,0.02,,2013-06-25 18:34:00,
2013-06-25 12:44:00,71.0,50.0,-100.00,NW,311,4.0,6.0,48,0.00,,,0.02,,2013-06-25 18:44:00,
2013-06-25 13:01:00,72.0,51.0,-100.00,WNW,298,6.0,9.0,48,0.00,,,0.02,,2013-06-25 19:01:00,
2013-06-25 13:22:00,71.0,52.0,-100.00,North,359,4.0,6.0,51,0.00,,,0.02,,2013-06-25 19:22:00,
2013-06-25 13:44:00,72.0,52.0,-100.00,NW,323,5.0,7.0,48,0.00,,,0.02,,2013-06-25 19:44:00,
2013-06-25 14:01:00,74.0,50.0,-100.00,West,280,8.0,11.0,43,0.00,,,0.02,,2013-06-25 20:01:00,
2013-06-25 14:11:00,74.0,50.0,-100.00,West,280,8.0,11.0,43,0.00,,,0.02,,2013-06-25 20:11:00,
2013-06-25 14:33:00,76.0,47.0,-100.00,SW,220,10.0,13.0,37,0.00,,,0.02,,2013-06-25 20:33:00,
2013-06-25 14:52:00,74.0,54.0,-100.00,SSW,209,10.0,12.0,50,0.00,,,0.02,,2013-06-25 20:52:00,
2013-06-25 15:01:00,75.0,53.0,-100.00,WSW,246,9.0,13.0,46,0.00,,,0.02,,2013-06-25 21:01:00,
2013-06-25 15:33:00,77.0,54.0,-100.00,South,175,9.0,12.0,45,0.00,,,0.02,,2013-06-25 21:33:00,
2013-06-25 15:43:00,77.0,54.0,-100.00,South,175,9.0,12.0,45,0.00,,,0.02,,2013-06-25 21:43:00,
2013-06-25 15:53:00,77.0,54.0,-100.00,South,175,9.0,12.0,45,0.00,,,0.02,,2013-06-25 21:53:00,
2013-06-25 16:01:00,76.0,53.0,-100.00,SSW,206,8.0,10.0,45,0.00,,,0.02,,2013-06-25 22:01:00,
2013-06-25 16:11:00,77.0,51.0,-100.00,WSW,243,10.0,13.0,41,0.00,,,0.02,,2013-06-25 22:11:00,
2013-06-25 16:22:00,77.0,51.0,-100.00,WSW,243,10.0,13.0,41,0.00,,,0.02,,2013-06-25 22:22:00,
2013-06-25 16:33:00,78.0,54.0,-100.00,SW,215,10.0,12.0,43,0.00,,,0.02,,2013-06-25 22:33:00,
2013-06-25 16:42:00,78.0,51.0,-100.00,SSW,202,7.0,11.0,40,0.00,,,0.02,,2013-06-25 22:42:00,
2013-06-25 16:52:00,78.0,51.0,-100.00,SSW,202,7.0,11.0,40,0.00,,,0.02,,2013-06-25 22:52:00,
2013-06-25 17:01:00,78.0,51.0,-100.00,SW,236,11.0,14.0,39,0.00,,,0.02,,2013-06-25 23:01:00,
2013-06-25 17:11:00,78.0,51.0,-100.00,SW,236,11.0,14.0,39,0.00,,,0.02,,2013-06-25 23:11:00,
2013-06-25 17:22:00,76.0,55.0,-100.00,SSW,199,10.0,13.0,48,0.00,,,0.02,,2013-06-25 23:22:00,
2013-06-25 17:34:00,78.0,51.0,-100.00,SSW,213,10.0,16.0,39,0.00,,,0.02,,2013-06-25 23:34:00,
2013-06-25 17:43:00,76.0,56.0,-100.00,West,264,8.0,10.0,50,0.00,,,0.02,,2013-06-25 23:43:00,
2013-06-25 17:52:00,76.0,56.0,-100.00,West,264,8.0,10.0,50,0.00,,,0.02,,2013-06-25 23:52:00,
2013-06-25 19:33:00,70.0,59.0,-100.00,East,83,6.0,7.0,67,0.00,,,0.03,,2013-06-26 01:33:00,
2013-06-25 19:43:00,69.0,59.0,-100.00,East,85,5.0,6.0,71,0.00,,,0.03,,2013-06-26 01:43:00,
2013-06-25 19:53:00,69.0,59.0,-100.00,East,85,5.0,6.0,71,0.00,,,0.03,,2013-06-26 01:53:00,
2013-06-25 20:01:00,69.0,59.0,-100.00,NE,45,1.0,1.0,70,0.00,,,0.03,,2013-06-26 02:01:00,
2013-06-25 20:11:00,69.0,59.0,-100.00,NE,45,1.0,1.0,70,0.00,,,0.03,,2013-06-26 02:11:00,
2013-06-25 20:22:00,69.0,60.0,-100.00,East,80,4.0,6.0,73,0.00,,,0.03,,2013-06-26 02:22:00,
2013-06-25 20:34:00,69.0,60.0,-100.00,NNE,30,4.0,5.0,72,0.00,,,0.03,,2013-06-26 02:34:00,
2013-06-25 20:43:00,68.0,61.0,-100.00,NNE,13,2.0,3.0,79,0.00,,,0.03,,2013-06-26 02:43:00,
2013-06-25 20:53:00,68.0,61.0,-100.00,NNE,13,2.0,3.0,79,0.00,,,0.03,,2013-06-26 02:53:00,
2013-06-25 21:01:00,68.0,61.0,-100.00,WSW,257,7.0,8.0,80,0.00,,,0.03,,2013-06-26 03:01:00,
2013-06-25 21:11:00,67.0,62.0,-100.00,NNE,16,3.0,4.0,84,0.00,,,0.04,,2013-06-26 03:11:00,
2013-06-25 21:22:00,67.0,62.0,-100.00,NNE,16,3.0,4.0,84,0.00,,,0.04,,2013-06-26 03:22:00,
2013-06-25 21:33:00,65.0,61.0,-100.00,ENE,73,6.0,6.0,87,0.00,,,0.04,,2013-06-26 03:33:00,
2013-06-25 21:43:00,65.0,60.0,-100.00,East,88,5.0,6.0,84,0.00,,,0.04,,2013-06-26 03:43:00,
2013-06-25 21:52:00,65.0,60.0,-100.00,East,88,5.0,6.0,84,0.00,,,0.04,,2013-06-26 03:52:00,
2013-06-25 22:01:00,65.0,60.0,-100.00,East,90,5.0,7.0,83,0.00,,,0.04,,2013-06-26 04:01:00,
2013-06-25 22:12:00,64.0,58.0,-100.00,East,82,2.0,4.0,81,0.00,,,0.04,,2013-06-26 04:12:00,
2013-06-25 22:22:00,64.0,58.0,-100.00,East,82,2.0,4.0,81,0.00,,,0.04,,2013-06-26 04:22:00,
2013-06-25 22:33:00,62.0,58.0,-100.00,ESE,112,1.0,3.0,87,0.00,,,0.04,,2013-06-26 04:33:00,
2013-06-25 22:43:00,60.0,58.0,-100.00,SE,145,1.0,2.0,91,0.00,,,0.03,,2013-06-26 04:43:00,
2013-06-25 22:53:00,60.0,58.0,-100.00,SE,145,1.0,2.0,91,0.00,,,0.03,,2013-06-26 04:53:00,
2013-06-25 23:02:00,60.0,58.0,-100.00,SE,131,1.0,2.0,93,0.00,,,0.03,,2013-06-26 05:02:00,
2013-06-25 23:11:00,61.0,57.0,-100.00,SE,124,0.0,1.0,87,0.00,,,0.02,,2013-06-26 05:11:00,
2013-06-25 23:33:00,59.0,56.0,-100.00,SW,229,2.0,2.0,90,0.00,,,0.02,,2013-06-26 05:33:00,
2013-06-25 23:43:00,59.0,57.0,-100.00,SW,226,1.0,2.0,93,0.00,,,0.02,,2013-06-26 05:43:00,
2013-06-25 23:52:00,59.0,57.0,-100.00,SW,226,1.0,2.0,93,0.00,,,0.02,,2013-06-26 05:52:00,